sensor_id;sensor_type;location;lat;lon;timestamp;temperature;humidity
68691;DHT22;55675;49.588;8.640;2023-03-14T00:00:59;12.50;96.70
68691;DHT22;55675;49.588;8.640;2023-03-14T00:03:24;12.50;96.60
68691;DHT22;55675;49.588;8.640;2023-03-14T00:05:50;12.50;96.50
68691;DHT22;55675;49.588;8.640;2023-03-14T00:08:15;12.50;96.50
68691;DHT22;55675;49.588;8.640;2023-03-14T00:10:41;12.40;96.50
68691;DHT22;55675;49.588;8.640;2023-03-14T00:13:06;12.40;96.60
68691;DHT22;55675;49.588;8.640;2023-03-14T00:15:34;12.40;96.60
68691;DHT22;55675;49.588;8.640;2023-03-14T00:18:00;12.40;96.70
68691;DHT22;55675;49.588;8.640;2023-03-14T00:20:25;12.40;96.70
68691;DHT22;55675;49.588;8.640;2023-03-14T00:22:51;12.40;96.70
68691;DHT22;55675;49.588;8.640;2023-03-14T00:25:17;12.30;96.80
68691;DHT22;55675;49.588;8.640;2023-03-14T00:27:42;12.30;96.80
68691;DHT22;55675;49.588;8.640;2023-03-14T00:30:08;12.30;96.90
68691;DHT22;55675;49.588;8.640;2023-03-14T00:32:34;12.30;96.90
68691;DHT22;55675;49.588;8.640;2023-03-14T00:34:59;12.30;96.90
68691;DHT22;55675;49.588;8.640;2023-03-14T00:37:26;12.30;96.90
68691;DHT22;55675;49.588;8.640;2023-03-14T00:39:51;12.30;96.80
68691;DHT22;55675;49.588;8.640;2023-03-14T00:42:17;12.40;96.80
68691;DHT22;55675;49.588;8.640;2023-03-14T00:44:42;12.40;96.70
68691;DHT22;55675;49.588;8.640;2023-03-14T00:47:07;12.40;96.70
68691;DHT22;55675;49.588;8.640;2023-03-14T00:49:33;12.30;96.70
68691;DHT22;55675;49.588;8.640;2023-03-14T00:51:58;12.30;96.80
68691;DHT22;55675;49.588;8.640;2023-03-14T00:54:24;12.30;96.80
68691;DHT22;55675;49.588;8.640;2023-03-14T00:56:49;12.30;96.80
68691;DHT22;55675;49.588;8.640;2023-03-14T00:59:15;12.30;96.70
68691;DHT22;55675;49.588;8.640;2023-03-14T01:01:40;12.30;96.70
68691;DHT22;55675;49.588;8.640;2023-03-14T01:04:07;12.30;96.70
68691;DHT22;55675;49.588;8.640;2023-03-14T01:06:32;12.30;96.70
68691;DHT22;55675;49.588;8.640;2023-03-14T01:08:58;12.30;96.80
68691;DHT22;55675;49.588;8.640;2023-03-14T01:11:29;12.30;96.90
68691;DHT22;55675;49.588;8.640;2023-03-14T01:13:54;12.30;96.90
68691;DHT22;55675;49.588;8.640;2023-03-14T01:16:21;12.30;96.90
68691;DHT22;55675;49.588;8.640;2023-03-14T01:18:47;12.30;96.90
68691;DHT22;55675;49.588;8.640;2023-03-14T01:23:47;12.20;97.00
68691;DHT22;55675;49.588;8.640;2023-03-14T01:26:15;12.20;97.00
68691;DHT22;55675;49.588;8.640;2023-03-14T01:28:40;12.20;97.00
68691;DHT22;55675;49.588;8.640;2023-03-14T01:31:07;12.20;97.10
68691;DHT22;55675;49.588;8.640;2023-03-14T01:33:32;12.20;97.10
68691;DHT22;55675;49.588;8.640;2023-03-14T01:35:58;12.20;97.20
68691;DHT22;55675;49.588;8.640;2023-03-14T01:38:23;12.20;97.30
68691;DHT22;55675;49.588;8.640;2023-03-14T01:40:49;12.20;97.30
68691;DHT22;55675;49.588;8.640;2023-03-14T01:43:15;12.20;97.20
68691;DHT22;55675;49.588;8.640;2023-03-14T01:48:26;12.20;97.40
68691;DHT22;55675;49.588;8.640;2023-03-14T01:50:53;12.20;97.40
68691;DHT22;55675;49.588;8.640;2023-03-14T01:53:19;12.30;97.40
68691;DHT22;55675;49.588;8.640;2023-03-14T01:55:47;12.30;97.30
68691;DHT22;55675;49.588;8.640;2023-03-14T01:58:12;12.40;97.30
68691;DHT22;55675;49.588;8.640;2023-03-14T02:00:39;12.40;97.20
68691;DHT22;55675;49.588;8.640;2023-03-14T02:03:05;12.40;97.10
68691;DHT22;55675;49.588;8.640;2023-03-14T02:05:32;12.40;97.00
68691;DHT22;55675;49.588;8.640;2023-03-14T02:08:00;12.40;96.90
68691;DHT22;55675;49.588;8.640;2023-03-14T02:10:30;12.40;96.80
68691;DHT22;55675;49.588;8.640;2023-03-14T02:12:57;12.50;96.90
68691;DHT22;55675;49.588;8.640;2023-03-14T02:15:24;12.50;96.90
68691;DHT22;55675;49.588;8.640;2023-03-14T02:17:50;12.50;96.80
68691;DHT22;55675;49.588;8.640;2023-03-14T02:20:23;12.50;96.80
68691;DHT22;55675;49.588;8.640;2023-03-14T02:22:51;12.60;96.80
68691;DHT22;55675;49.588;8.640;2023-03-14T02:25:26;12.50;96.70
68691;DHT22;55675;49.588;8.640;2023-03-14T02:27:55;12.60;96.60
68691;DHT22;55675;49.588;8.640;2023-03-14T02:30:21;12.60;96.60
68691;DHT22;55675;49.588;8.640;2023-03-14T02:32:48;12.60;96.50
68691;DHT22;55675;49.588;8.640;2023-03-14T02:35:24;12.60;96.40
68691;DHT22;55675;49.588;8.640;2023-03-14T02:38:37;12.70;96.30
68691;DHT22;55675;49.588;8.640;2023-03-14T02:40:36;12.60;96.10
68691;DHT22;55675;49.588;8.640;2023-03-14T02:43:02;12.70;96.20
68691;DHT22;55675;49.588;8.640;2023-03-14T02:45:36;12.70;95.90
68691;DHT22;55675;49.588;8.640;2023-03-14T02:48:02;12.70;95.60
68691;DHT22;55675;49.588;8.640;2023-03-14T02:50:30;12.70;95.50
68691;DHT22;55675;49.588;8.640;2023-03-14T02:52:58;12.70;95.50
68691;DHT22;55675;49.588;8.640;2023-03-14T02:55:24;12.70;95.40
68691;DHT22;55675;49.588;8.640;2023-03-14T02:57:50;12.70;95.40
68691;DHT22;55675;49.588;8.640;2023-03-14T03:00:16;12.70;95.30
68691;DHT22;55675;49.588;8.640;2023-03-14T03:02:41;12.60;95.30
68691;DHT22;55675;49.588;8.640;2023-03-14T03:05:07;12.60;95.40
68691;DHT22;55675;49.588;8.640;2023-03-14T03:07:32;12.60;95.60
68691;DHT22;55675;49.588;8.640;2023-03-14T03:09:58;12.60;95.60
68691;DHT22;55675;49.588;8.640;2023-03-14T03:12:23;12.50;95.70
68691;DHT22;55675;49.588;8.640;2023-03-14T03:14:49;12.40;95.80
68691;DHT22;55675;49.588;8.640;2023-03-14T03:17:14;12.40;95.90
68691;DHT22;55675;49.588;8.640;2023-03-14T03:19:40;12.30;95.90
68691;DHT22;55675;49.588;8.640;2023-03-14T03:22:05;12.30;96.00
68691;DHT22;55675;49.588;8.640;2023-03-14T03:24:31;12.30;96.00
68691;DHT22;55675;49.588;8.640;2023-03-14T03:26:56;12.30;96.00
68691;DHT22;55675;49.588;8.640;2023-03-14T03:29:21;12.30;96.10
68691;DHT22;55675;49.588;8.640;2023-03-14T03:31:47;12.30;96.00
68691;DHT22;55675;49.588;8.640;2023-03-14T03:34:13;12.20;96.30
68691;DHT22;55675;49.588;8.640;2023-03-14T03:36:38;12.20;96.50
68691;DHT22;55675;49.588;8.640;2023-03-14T03:39:04;12.20;96.60
68691;DHT22;55675;49.588;8.640;2023-03-14T03:41:29;12.10;96.80
68691;DHT22;55675;49.588;8.640;2023-03-14T03:43:55;12.10;96.90
68691;DHT22;55675;49.588;8.640;2023-03-14T03:46:20;12.00;97.00
68691;DHT22;55675;49.588;8.640;2023-03-14T03:48:46;12.00;97.10
68691;DHT22;55675;49.588;8.640;2023-03-14T03:51:12;12.00;97.10
68691;DHT22;55675;49.588;8.640;2023-03-14T03:53:38;11.90;97.20
68691;DHT22;55675;49.588;8.640;2023-03-14T03:56:03;11.90;97.20
68691;DHT22;55675;49.588;8.640;2023-03-14T03:58:28;11.80;97.10
68691;DHT22;55675;49.588;8.640;2023-03-14T04:00:54;11.80;97.00
68691;DHT22;55675;49.588;8.640;2023-03-14T04:03:19;11.80;97.00
68691;DHT22;55675;49.588;8.640;2023-03-14T04:05:45;11.90;96.90
68691;DHT22;55675;49.588;8.640;2023-03-14T04:08:10;11.90;96.80
68691;DHT22;55675;49.588;8.640;2023-03-14T04:10:36;11.90;96.80
68691;DHT22;55675;49.588;8.640;2023-03-14T04:13:02;11.90;96.70
68691;DHT22;55675;49.588;8.640;2023-03-14T04:15:27;11.90;96.70
68691;DHT22;55675;49.588;8.640;2023-03-14T04:17:56;11.90;96.70
68691;DHT22;55675;49.588;8.640;2023-03-14T04:20:21;11.90;96.60
68691;DHT22;55675;49.588;8.640;2023-03-14T04:22:47;12.00;96.50
68691;DHT22;55675;49.588;8.640;2023-03-14T04:25:12;12.00;96.30
68691;DHT22;55675;49.588;8.640;2023-03-14T04:27:38;12.10;96.10
68691;DHT22;55675;49.588;8.640;2023-03-14T04:30:03;12.10;96.00
68691;DHT22;55675;49.588;8.640;2023-03-14T04:32:29;12.10;95.80
68691;DHT22;55675;49.588;8.640;2023-03-14T04:34:54;12.10;95.70
68691;DHT22;55675;49.588;8.640;2023-03-14T04:37:22;12.10;95.60
68691;DHT22;55675;49.588;8.640;2023-03-14T04:39:48;12.10;95.60
68691;DHT22;55675;49.588;8.640;2023-03-14T04:42:13;12.10;95.40
68691;DHT22;55675;49.588;8.640;2023-03-14T04:44:38;12.10;95.40
68691;DHT22;55675;49.588;8.640;2023-03-14T04:47:04;12.10;95.40
68691;DHT22;55675;49.588;8.640;2023-03-14T04:49:29;12.10;95.30
68691;DHT22;55675;49.588;8.640;2023-03-14T04:51:55;12.20;95.20
68691;DHT22;55675;49.588;8.640;2023-03-14T04:54:20;12.20;95.10
68691;DHT22;55675;49.588;8.640;2023-03-14T04:56:46;12.20;94.90
68691;DHT22;55675;49.588;8.640;2023-03-14T04:59:11;12.20;94.70
68691;DHT22;55675;49.588;8.640;2023-03-14T05:01:37;12.20;94.60
68691;DHT22;55675;49.588;8.640;2023-03-14T05:04:02;12.30;94.70
68691;DHT22;55675;49.588;8.640;2023-03-14T05:06:27;12.30;94.60
68691;DHT22;55675;49.588;8.640;2023-03-14T05:08:53;12.30;94.00
68691;DHT22;55675;49.588;8.640;2023-03-14T05:11:18;12.30;94.00
68691;DHT22;55675;49.588;8.640;2023-03-14T05:13:44;12.40;93.90
68691;DHT22;55675;49.588;8.640;2023-03-14T05:16:10;12.40;93.60
68691;DHT22;55675;49.588;8.640;2023-03-14T05:18:35;12.40;93.40
68691;DHT22;55675;49.588;8.640;2023-03-14T05:21:01;12.40;93.30
68691;DHT22;55675;49.588;8.640;2023-03-14T05:23:27;12.40;93.30
68691;DHT22;55675;49.588;8.640;2023-03-14T05:25:52;12.40;93.20
68691;DHT22;55675;49.588;8.640;2023-03-14T05:28:18;12.40;93.00
68691;DHT22;55675;49.588;8.640;2023-03-14T05:30:43;12.40;92.90
68691;DHT22;55675;49.588;8.640;2023-03-14T05:33:09;12.40;92.80
68691;DHT22;55675;49.588;8.640;2023-03-14T05:35:34;12.40;92.50
68691;DHT22;55675;49.588;8.640;2023-03-14T05:37:59;12.40;92.20
68691;DHT22;55675;49.588;8.640;2023-03-14T05:40:25;12.40;92.20
68691;DHT22;55675;49.588;8.640;2023-03-14T05:42:50;12.40;92.20
68691;DHT22;55675;49.588;8.640;2023-03-14T05:45:16;12.40;92.30
68691;DHT22;55675;49.588;8.640;2023-03-14T05:47:41;12.40;92.10
68691;DHT22;55675;49.588;8.640;2023-03-14T05:50:07;12.40;92.00
68691;DHT22;55675;49.588;8.640;2023-03-14T05:52:32;12.40;92.10
68691;DHT22;55675;49.588;8.640;2023-03-14T05:54:58;12.40;92.00
68691;DHT22;55675;49.588;8.640;2023-03-14T05:57:23;12.40;92.00
68691;DHT22;55675;49.588;8.640;2023-03-14T05:59:49;12.40;91.80
68691;DHT22;55675;49.588;8.640;2023-03-14T06:02:14;12.40;91.80
68691;DHT22;55675;49.588;8.640;2023-03-14T06:04:40;12.40;91.80
68691;DHT22;55675;49.588;8.640;2023-03-14T06:07:05;12.40;91.90
68691;DHT22;55675;49.588;8.640;2023-03-14T06:09:30;12.40;91.80
68691;DHT22;55675;49.588;8.640;2023-03-14T06:11:56;12.40;91.80
68691;DHT22;55675;49.588;8.640;2023-03-14T06:14:21;12.40;91.70
68691;DHT22;55675;49.588;8.640;2023-03-14T06:16:47;12.50;91.70
68691;DHT22;55675;49.588;8.640;2023-03-14T06:19:15;12.50;91.70
68691;DHT22;55675;49.588;8.640;2023-03-14T06:21:41;12.50;91.60
68691;DHT22;55675;49.588;8.640;2023-03-14T06:24:07;12.50;91.40
68691;DHT22;55675;49.588;8.640;2023-03-14T06:26:32;12.50;91.30
68691;DHT22;55675;49.588;8.640;2023-03-14T06:28:58;12.50;91.10
68691;DHT22;55675;49.588;8.640;2023-03-14T06:31:28;12.60;91.20
68691;DHT22;55675;49.588;8.640;2023-03-14T06:33:54;12.60;90.90
68691;DHT22;55675;49.588;8.640;2023-03-14T06:36:19;12.60;91.00
68691;DHT22;55675;49.588;8.640;2023-03-14T06:38:45;12.60;91.00
68691;DHT22;55675;49.588;8.640;2023-03-14T06:41:10;12.60;91.00
68691;DHT22;55675;49.588;8.640;2023-03-14T06:43:35;12.60;91.10
68691;DHT22;55675;49.588;8.640;2023-03-14T06:46:01;12.60;91.10
68691;DHT22;55675;49.588;8.640;2023-03-14T06:48:26;12.60;91.10
68691;DHT22;55675;49.588;8.640;2023-03-14T06:50:52;12.60;91.00
68691;DHT22;55675;49.588;8.640;2023-03-14T06:53:17;12.60;91.00
68691;DHT22;55675;49.588;8.640;2023-03-14T06:55:43;12.60;91.00
68691;DHT22;55675;49.588;8.640;2023-03-14T06:58:08;12.70;91.00
68691;DHT22;55675;49.588;8.640;2023-03-14T07:00:34;12.60;90.90
68691;DHT22;55675;49.588;8.640;2023-03-14T07:03:00;12.60;90.80
68691;DHT22;55675;49.588;8.640;2023-03-14T07:05:25;12.60;91.20
68691;DHT22;55675;49.588;8.640;2023-03-14T07:07:50;12.70;91.30
68691;DHT22;55675;49.588;8.640;2023-03-14T07:10:16;12.70;91.30
68691;DHT22;55675;49.588;8.640;2023-03-14T07:12:41;12.70;91.40
68691;DHT22;55675;49.588;8.640;2023-03-14T07:15:07;12.70;91.60
68691;DHT22;55675;49.588;8.640;2023-03-14T07:17:32;12.70;91.60
68691;DHT22;55675;49.588;8.640;2023-03-14T07:19:58;12.70;91.60
68691;DHT22;55675;49.588;8.640;2023-03-14T07:22:24;12.80;91.60
68691;DHT22;55675;49.588;8.640;2023-03-14T07:24:50;12.80;91.50
68691;DHT22;55675;49.588;8.640;2023-03-14T07:27:15;12.90;91.40
68691;DHT22;55675;49.588;8.640;2023-03-14T07:29:41;12.90;91.10
68691;DHT22;55675;49.588;8.640;2023-03-14T07:32:06;12.90;91.20
68691;DHT22;55675;49.588;8.640;2023-03-14T07:34:33;13.00;91.00
68691;DHT22;55675;49.588;8.640;2023-03-14T07:36:58;13.00;90.80
68691;DHT22;55675;49.588;8.640;2023-03-14T07:39:24;13.10;90.70
68691;DHT22;55675;49.588;8.640;2023-03-14T07:41:49;13.10;90.80
68691;DHT22;55675;49.588;8.640;2023-03-14T07:44:15;13.10;90.50
68691;DHT22;55675;49.588;8.640;2023-03-14T07:46:40;13.10;90.50
68691;DHT22;55675;49.588;8.640;2023-03-14T07:49:06;13.20;90.30
68691;DHT22;55675;49.588;8.640;2023-03-14T07:51:31;13.20;90.00
68691;DHT22;55675;49.588;8.640;2023-03-14T07:53:56;13.20;89.90
68691;DHT22;55675;49.588;8.640;2023-03-14T07:56:22;13.30;89.60
68691;DHT22;55675;49.588;8.640;2023-03-14T07:58:47;13.30;89.10
68691;DHT22;55675;49.588;8.640;2023-03-14T08:01:13;13.40;88.90
68691;DHT22;55675;49.588;8.640;2023-03-14T08:03:39;13.50;89.20
68691;DHT22;55675;49.588;8.640;2023-03-14T08:06:04;13.50;88.90
68691;DHT22;55675;49.588;8.640;2023-03-14T08:08:30;13.60;88.70
68691;DHT22;55675;49.588;8.640;2023-03-14T08:10:55;13.60;88.40
68691;DHT22;55675;49.588;8.640;2023-03-14T08:13:20;13.60;88.10
68691;DHT22;55675;49.588;8.640;2023-03-14T08:15:49;13.60;87.40
68691;DHT22;55675;49.588;8.640;2023-03-14T08:18:16;13.60;88.00
68691;DHT22;55675;49.588;8.640;2023-03-14T08:20:41;13.60;88.30
68691;DHT22;55675;49.588;8.640;2023-03-14T08:23:07;13.70;88.40
68691;DHT22;55675;49.588;8.640;2023-03-14T08:25:32;13.60;88.10
68691;DHT22;55675;49.588;8.640;2023-03-14T08:27:58;13.60;88.00
68691;DHT22;55675;49.588;8.640;2023-03-14T08:30:23;13.60;88.10
68691;DHT22;55675;49.588;8.640;2023-03-14T08:32:49;13.60;87.40
68691;DHT22;55675;49.588;8.640;2023-03-14T08:35:15;13.60;88.40
68691;DHT22;55675;49.588;8.640;2023-03-14T08:37:40;13.70;88.60
68691;DHT22;55675;49.588;8.640;2023-03-14T08:40:06;13.70;88.40
68691;DHT22;55675;49.588;8.640;2023-03-14T08:42:32;13.70;88.20
68691;DHT22;55675;49.588;8.640;2023-03-14T08:44:58;13.70;88.40
68691;DHT22;55675;49.588;8.640;2023-03-14T08:47:23;13.70;88.60
68691;DHT22;55675;49.588;8.640;2023-03-14T08:49:49;13.70;88.50
68691;DHT22;55675;49.588;8.640;2023-03-14T08:52:14;13.70;89.00
68691;DHT22;55675;49.588;8.640;2023-03-14T08:54:42;13.70;88.90
68691;DHT22;55675;49.588;8.640;2023-03-14T08:57:08;13.70;88.50
68691;DHT22;55675;49.588;8.640;2023-03-14T08:59:34;13.70;88.60
68691;DHT22;55675;49.588;8.640;2023-03-14T09:01:59;13.70;88.40
68691;DHT22;55675;49.588;8.640;2023-03-14T09:04:32;13.70;88.40
68691;DHT22;55675;49.588;8.640;2023-03-14T09:06:57;13.70;87.40
68691;DHT22;55675;49.588;8.640;2023-03-14T09:09:24;13.70;87.20
68691;DHT22;55675;49.588;8.640;2023-03-14T09:11:49;13.80;86.70
68691;DHT22;55675;49.588;8.640;2023-03-14T09:14:15;13.90;85.90
68691;DHT22;55675;49.588;8.640;2023-03-14T09:16:40;13.90;85.90
68691;DHT22;55675;49.588;8.640;2023-03-14T09:19:05;14.00;85.90
68691;DHT22;55675;49.588;8.640;2023-03-14T09:21:31;14.00;86.10
68691;DHT22;55675;49.588;8.640;2023-03-14T09:23:56;14.10;86.00
68691;DHT22;55675;49.588;8.640;2023-03-14T09:26:22;14.30;85.90
68691;DHT22;55675;49.588;8.640;2023-03-14T09:28:47;14.40;85.30
68691;DHT22;55675;49.588;8.640;2023-03-14T09:31:14;14.40;85.20
68691;DHT22;55675;49.588;8.640;2023-03-14T09:33:39;14.50;85.00
68691;DHT22;55675;49.588;8.640;2023-03-14T09:36:05;14.60;85.20
68691;DHT22;55675;49.588;8.640;2023-03-14T09:38:31;14.60;85.00
68691;DHT22;55675;49.588;8.640;2023-03-14T09:40:59;14.60;85.40
68691;DHT22;55675;49.588;8.640;2023-03-14T09:43:25;14.60;85.60
68691;DHT22;55675;49.588;8.640;2023-03-14T09:45:51;14.60;84.60
68691;DHT22;55675;49.588;8.640;2023-03-14T09:48:25;14.70;85.00
68691;DHT22;55675;49.588;8.640;2023-03-14T09:50:52;14.70;85.00
68691;DHT22;55675;49.588;8.640;2023-03-14T09:53:19;14.80;84.50
68691;DHT22;55675;49.588;8.640;2023-03-14T09:55:46;14.80;85.10
68691;DHT22;55675;49.588;8.640;2023-03-14T09:58:13;14.70;84.30
68691;DHT22;55675;49.588;8.640;2023-03-14T10:00:39;14.60;84.50
68691;DHT22;55675;49.588;8.640;2023-03-14T10:05:36;14.40;84.60
68691;DHT22;55675;49.588;8.640;2023-03-14T10:08:02;14.40;85.90
68691;DHT22;55675;49.588;8.640;2023-03-14T10:10:27;14.40;87.10
68691;DHT22;55675;49.588;8.640;2023-03-14T10:12:59;14.50;86.80
68691;DHT22;55675;49.588;8.640;2023-03-14T10:15:29;14.50;86.70
68691;DHT22;55675;49.588;8.640;2023-03-14T10:17:55;14.50;86.70
68691;DHT22;55675;49.588;8.640;2023-03-14T10:20:27;14.60;87.20
68691;DHT22;55675;49.588;8.640;2023-03-14T10:22:57;14.70;87.20
68691;DHT22;55675;49.588;8.640;2023-03-14T10:25:27;14.80;86.50
68691;DHT22;55675;49.588;8.640;2023-03-14T10:27:53;14.80;86.30
68691;DHT22;55675;49.588;8.640;2023-03-14T10:30:29;14.70;87.60
68691;DHT22;55675;49.588;8.640;2023-03-14T10:32:55;14.60;87.70
68691;DHT22;55675;49.588;8.640;2023-03-14T10:35:21;14.60;87.70
68691;DHT22;55675;49.588;8.640;2023-03-14T10:37:56;14.50;88.00
68691;DHT22;55675;49.588;8.640;2023-03-14T10:40:26;14.40;88.40
68691;DHT22;55675;49.588;8.640;2023-03-14T10:42:52;14.30;88.30
68691;DHT22;55675;49.588;8.640;2023-03-14T10:47:59;14.40;90.10
68691;DHT22;55675;49.588;8.640;2023-03-14T10:50:30;14.30;90.30
68691;DHT22;55675;49.588;8.640;2023-03-14T10:52:57;14.40;90.00
68691;DHT22;55675;49.588;8.640;2023-03-14T10:55:25;14.40;90.10
68691;DHT22;55675;49.588;8.640;2023-03-14T10:57:53;14.40;90.20
68691;DHT22;55675;49.588;8.640;2023-03-14T11:00:22;14.30;89.50
68691;DHT22;55675;49.588;8.640;2023-03-14T11:02:55;14.30;90.40
68691;DHT22;55675;49.588;8.640;2023-03-14T11:05:28;14.10;90.50
68691;DHT22;55675;49.588;8.640;2023-03-14T11:08:02;13.90;91.20
68691;DHT22;55675;49.588;8.640;2023-03-14T11:10:35;13.80;92.00
68691;DHT22;55675;49.588;8.640;2023-03-14T11:15:49;13.60;92.70
68691;DHT22;55675;49.588;8.640;2023-03-14T11:20:55;13.50;93.30
68691;DHT22;55675;49.588;8.640;2023-03-14T11:26:00;13.40;93.90
68691;DHT22;55675;49.588;8.640;2023-03-14T11:28:34;13.40;94.10
68691;DHT22;55675;49.588;8.640;2023-03-14T11:31:06;13.40;94.20
68691;DHT22;55675;49.588;8.640;2023-03-14T11:33:38;13.40;94.00
68691;DHT22;55675;49.588;8.640;2023-03-14T11:36:08;13.50;94.00
68691;DHT22;55675;49.588;8.640;2023-03-14T11:38:46;13.60;93.90
68691;DHT22;55675;49.588;8.640;2023-03-14T11:41:22;13.70;93.80
68691;DHT22;55675;49.588;8.640;2023-03-14T11:43:48;13.60;93.90
68691;DHT22;55675;49.588;8.640;2023-03-14T11:46:39;13.60;93.80
68691;DHT22;55675;49.588;8.640;2023-03-14T11:51:52;13.50;94.30
68691;DHT22;55675;49.588;8.640;2023-03-14T11:56:55;13.40;94.80
68691;DHT22;55675;49.588;8.640;2023-03-14T11:59:44;13.20;95.10
68691;DHT22;55675;49.588;8.640;2023-03-14T12:02:13;13.10;95.60
68691;DHT22;55675;49.588;8.640;2023-03-14T12:07:38;12.90;95.30
68691;DHT22;55675;49.588;8.640;2023-03-14T12:10:05;12.80;95.50
68691;DHT22;55675;49.588;8.640;2023-03-14T12:12:30;12.80;94.60
68691;DHT22;55675;49.588;8.640;2023-03-14T12:14:57;12.70;94.20
68691;DHT22;55675;49.588;8.640;2023-03-14T12:17:36;12.70;92.90
68691;DHT22;55675;49.588;8.640;2023-03-14T12:20:15;12.60;92.70
68691;DHT22;55675;49.588;8.640;2023-03-14T12:22:42;12.50;92.90
68691;DHT22;55675;49.588;8.640;2023-03-14T12:30:30;12.30;89.20
68691;DHT22;55675;49.588;8.640;2023-03-14T12:35:44;12.10;83.50
68691;DHT22;55675;49.588;8.640;2023-03-14T12:38:10;12.00;82.70
68691;DHT22;55675;49.588;8.640;2023-03-14T12:40:48;12.10;82.60
68691;DHT22;55675;49.588;8.640;2023-03-14T12:43:24;12.20;81.30
68691;DHT22;55675;49.588;8.640;2023-03-14T12:46:32;12.30;79.40
68691;DHT22;55675;49.588;8.640;2023-03-14T12:48:38;12.50;80.60
68691;DHT22;55675;49.588;8.640;2023-03-14T12:51:05;12.60;79.80
68691;DHT22;55675;49.588;8.640;2023-03-14T13:01:10;12.90;80.00
68691;DHT22;55675;49.588;8.640;2023-03-14T13:03:45;13.10;77.90
68691;DHT22;55675;49.588;8.640;2023-03-14T13:06:11;12.90;76.30
68691;DHT22;55675;49.588;8.640;2023-03-14T13:08:41;12.90;76.50
68691;DHT22;55675;49.588;8.640;2023-03-14T13:11:08;12.80;75.00
68691;DHT22;55675;49.588;8.640;2023-03-14T13:13:34;12.70;74.50
68691;DHT22;55675;49.588;8.640;2023-03-14T13:16:01;12.60;72.10
68691;DHT22;55675;49.588;8.640;2023-03-14T13:18:34;12.40;73.20
68691;DHT22;55675;49.588;8.640;2023-03-14T13:21:05;12.30;74.20
68691;DHT22;55675;49.588;8.640;2023-03-14T13:23:32;12.20;74.70
68691;DHT22;55675;49.588;8.640;2023-03-14T13:25:59;12.20;75.40
68691;DHT22;55675;49.588;8.640;2023-03-14T13:28:25;12.40;74.30
68691;DHT22;55675;49.588;8.640;2023-03-14T13:30:54;12.30;72.90
68691;DHT22;55675;49.588;8.640;2023-03-14T13:33:21;12.40;74.60
68691;DHT22;55675;49.588;8.640;2023-03-14T13:35:48;12.50;76.60
68691;DHT22;55675;49.588;8.640;2023-03-14T13:38:18;12.50;77.30
68691;DHT22;55675;49.588;8.640;2023-03-14T13:40:45;12.50;76.80
68691;DHT22;55675;49.588;8.640;2023-03-14T13:43:12;12.40;73.50
68691;DHT22;55675;49.588;8.640;2023-03-14T13:45:49;12.20;71.30
68691;DHT22;55675;49.588;8.640;2023-03-14T13:48:15;12.10;72.10
68691;DHT22;55675;49.588;8.640;2023-03-14T13:50:45;12.00;74.00
68691;DHT22;55675;49.588;8.640;2023-03-14T13:53:11;11.90;74.10
68691;DHT22;55675;49.588;8.640;2023-03-14T13:55:37;11.80;74.60
68691;DHT22;55675;49.588;8.640;2023-03-14T13:58:02;11.60;73.40
68691;DHT22;55675;49.588;8.640;2023-03-14T14:00:28;11.40;76.90
68691;DHT22;55675;49.588;8.640;2023-03-14T14:02:54;10.70;81.80
68691;DHT22;55675;49.588;8.640;2023-03-14T14:05:20;10.10;86.00
68691;DHT22;55675;49.588;8.640;2023-03-14T14:07:46;9.70;84.70
68691;DHT22;55675;49.588;8.640;2023-03-14T14:10:13;9.40;84.60
68691;DHT22;55675;49.588;8.640;2023-03-14T14:12:40;9.50;85.50
68691;DHT22;55675;49.588;8.640;2023-03-14T14:15:06;9.90;83.30
68691;DHT22;55675;49.588;8.640;2023-03-14T14:17:34;10.40;82.60
68691;DHT22;55675;49.588;8.640;2023-03-14T14:20:02;11.00;80.00
68691;DHT22;55675;49.588;8.640;2023-03-14T14:22:30;12.00;75.10
68691;DHT22;55675;49.588;8.640;2023-03-14T14:24:55;13.30;70.00
68691;DHT22;55675;49.588;8.640;2023-03-14T14:27:28;14.80;64.10
68691;DHT22;55675;49.588;8.640;2023-03-14T14:30:01;16.20;59.60
68691;DHT22;55675;49.588;8.640;2023-03-14T14:32:33;16.80;56.80
68691;DHT22;55675;49.588;8.640;2023-03-14T14:34:59;16.80;54.20
68691;DHT22;55675;49.588;8.640;2023-03-14T14:39:51;18.20;48.60
68691;DHT22;55675;49.588;8.640;2023-03-14T14:42:19;18.60;46.70
68691;DHT22;55675;49.588;8.640;2023-03-14T14:44:47;18.30;45.80
68691;DHT22;55675;49.588;8.640;2023-03-14T14:47:15;18.40;45.80
68691;DHT22;55675;49.588;8.640;2023-03-14T14:49:41;19.40;44.90
68691;DHT22;55675;49.588;8.640;2023-03-14T14:52:13;20.20;39.10
68691;DHT22;55675;49.588;8.640;2023-03-14T14:54:43;20.60;38.70
68691;DHT22;55675;49.588;8.640;2023-03-14T14:57:17;21.00;36.80
68691;DHT22;55675;49.588;8.640;2023-03-14T14:59:42;19.80;37.20
68691;DHT22;55675;49.588;8.640;2023-03-14T15:02:09;18.20;37.70
68691;DHT22;55675;49.588;8.640;2023-03-14T15:04:41;16.80;40.80
68691;DHT22;55675;49.588;8.640;2023-03-14T15:07:07;16.40;42.20
68691;DHT22;55675;49.588;8.640;2023-03-14T15:09:33;16.00;43.20
68691;DHT22;55675;49.588;8.640;2023-03-14T15:11:58;16.40;44.10
68691;DHT22;55675;49.588;8.640;2023-03-14T15:14:24;17.80;39.80
68691;DHT22;55675;49.588;8.640;2023-03-14T15:16:50;17.00;38.20
68691;DHT22;55675;49.588;8.640;2023-03-14T15:19:20;15.70;40.20
68691;DHT22;55675;49.588;8.640;2023-03-14T15:21:45;14.60;43.10
68691;DHT22;55675;49.588;8.640;2023-03-14T15:24:11;13.80;44.70
68691;DHT22;55675;49.588;8.640;2023-03-14T15:26:36;13.20;47.30
68691;DHT22;55675;49.588;8.640;2023-03-14T15:29:02;12.60;48.00
68691;DHT22;55675;49.588;8.640;2023-03-14T15:31:27;12.30;49.50
68691;DHT22;55675;49.588;8.640;2023-03-14T15:33:53;12.10;49.30
68691;DHT22;55675;49.588;8.640;2023-03-14T15:36:25;11.90;49.50
68691;DHT22;55675;49.588;8.640;2023-03-14T15:38:51;11.80;50.40
68691;DHT22;55675;49.588;8.640;2023-03-14T15:41:17;11.70;49.70
68691;DHT22;55675;49.588;8.640;2023-03-14T15:43:43;11.70;49.10
68691;DHT22;55675;49.588;8.640;2023-03-14T15:46:09;11.70;50.20
68691;DHT22;55675;49.588;8.640;2023-03-14T15:48:35;11.70;49.30
68691;DHT22;55675;49.588;8.640;2023-03-14T15:51:00;12.00;49.10
68691;DHT22;55675;49.588;8.640;2023-03-14T15:53:25;12.90;48.70
68691;DHT22;55675;49.588;8.640;2023-03-14T15:55:51;13.90;46.10
68691;DHT22;55675;49.588;8.640;2023-03-14T15:58:17;15.70;44.40
68691;DHT22;55675;49.588;8.640;2023-03-14T16:00:43;17.70;38.50
68691;DHT22;55675;49.588;8.640;2023-03-14T16:03:08;19.10;37.60
68691;DHT22;55675;49.588;8.640;2023-03-14T16:05:33;20.30;32.90
68691;DHT22;55675;49.588;8.640;2023-03-14T16:07:59;20.90;31.10
68691;DHT22;55675;49.588;8.640;2023-03-14T16:10:26;21.40;29.90
68691;DHT22;55675;49.588;8.640;2023-03-14T16:12:52;21.60;29.40